Sun Prairie, WI (53590)

12:12 PM CST on February 01, 2015 (GMT -0600)
Northside School | Change Station
CLOSE
Current Station
Personal Weather Station
Location: Sun Prairie, WI
Elevation: 1007 ft
Nearby Weather Stations
Active Advisory: Winter Storm Warning Active Notice: Local Storm Report

Elev 1007 ft 43.19 °N, 89.22 °W | Updated 5 seconds ago

Snow
Snow
14.4 °F
Feels Like 2 °F
N
10.0
Wind Variable Wind from ENE
Gusts 10.0 mph

Today
High -- | Low -- °F
--% Chance of Precip.
Yesterday
High -- | Low -- °F
Precip. -- in
7:12 AM 5:08 PM
Waxing Gibbous, 95% visible
Pressure 30.03 in
Visibility 0.5 miles
Clouds Mostly Cloudy 1500 ft
Overcast 2800 ft
Windchill 2 °F
Dew Point 12 °F
Humidity 91%
Rainfall 0.00 in
Snow Depth Not available.
UV 1 out of 12
Pollen .10 out of 12
Air Quality Not available.
Flu Activity Not available.
METAR KMSN 011753Z 03022G31KT 1/2SM R36/3500V6000FT SN BLSN BKN015 OVC028 M09/M12 A2999 RMK AO2 PK WND 03033/1740 SLP168 4/004 933003 P0001 60011 T10941117 11089 21094 58018

More Conditions Fewer Conditions

Pressure 30.03 in
Visibility 0.5 miles
Clouds Mostly Cloudy 1500 ft
Overcast 2800 ft
Windchill 2 °F
Dew Point 12 °F
Humidity 91%
Rainfall 0.00 in
Snow Depth Not available.
UV 1 out of 12
Pollen .10 out of 12
Air Quality Not available.
Flu Activity Not available.
METAR KMSN 011753Z 03022G31KT 1/2SM R36/3500V6000FT SN BLSN BKN015 OVC028 M09/M12 A2999 RMK AO2 PK WND 03033/1740 SLP168 4/004 933003 P0001 60011 T10941117 11089 21094 58018

More Conditions Fewer Conditions

10-Day Weather Forecast

Almanac

Astronomy

Feb. 01, 2015 Rise Set
Actual Time
Civil Twilight
Nautical Twilight
Astronomical Twilight
Moon
Length of Visible Light
Length of Day
Tomorrow will be .
, % of the Moon is Illuminated

Today's Extremes

State Highs State Lows

Community

WunderPhotos

Upload Photos

1,792,420 photos uploaded!

WunderBlogs® & News

Nearby

Air Quality

  Air Quality AQ Index Pollutant
Not available.

Snow Depth

Station Depth Elevation

Earthquake Activity

City Distance Mag. Time & Date
Minimum magnitude displayed is 2.5.

Coastal Water Temperatures

Place Temperature

Nearby Weather Stations